Albert, Oklahoma
Current Conditions -  °F | °C
As of 5:55 PM on Friday 28 Nov 2014 (Local Time) from KOJA Reporting Station
Clear Clear  
Wind Chill: 59°   Ceiling: Unl
Heat Index: 59°   Visibility: 10mi
Dew Point: 41°   Wind: 10mph
Humidity: 51%   Direction: 190°S
Pressure: 29.86"   Gusts: NA
Location:  35.23°N, 98.41°W
Report Text: KOJA 282355Z AUTO 19009KT 10SM CLR 15/05 A2986 RMK AO2
Loading
Personal Weather Stations






























Interactive Weather Map New forecast layout! Learn more

10-Day Weather Forecast

Advertisements
Track Severe Weather on mobile